Terminal Aerodrome Forecast
Issued by NWS

Current Version | Previous Version | Text Only | Print | Product List | Glossary Off
Versions: 1 2 3 4 5 6 7 8 9 10 11 12 13 14 15 16 17 18 19 20

893
FTUS41 KRLX 191139
TAFCKB
TAF
KCKB 191139Z 1912/2012 23005KT P6SM OVC008
     FM191500 24006KT P6SM BKN013
     FM192100 24007KT P6SM SCT020
     FM200900 00000KT 4SM BR SCT020=

USA.gov is the U.S. government's official web portal to all federal, state and local government web resources and services.